createdAt,value
2019-05-29T00:02:01.265Z,11.00
2019-05-29T00:04:32.735Z,11.00
2019-05-29T00:07:06.007Z,11.00
2019-05-29T00:09:37.793Z,11.00
2019-05-29T00:12:11.901Z,11.10
2019-05-29T00:14:42.224Z,11.10
2019-05-29T00:17:14.693Z,11.10
2019-05-29T00:19:46.265Z,11.10
2019-05-29T00:22:18.634Z,11.10
2019-05-29T00:24:50.984Z,11.10
2019-05-29T00:27:22.974Z,11.20
2019-05-29T00:29:54.499Z,11.20
2019-05-29T00:32:25.979Z,11.20
2019-05-29T00:34:57.342Z,11.30
2019-05-29T00:37:30.051Z,11.20
2019-05-29T00:40:01.411Z,11.20
2019-05-29T00:42:32.788Z,11.20
2019-05-29T00:45:04.920Z,11.20
2019-05-29T00:47:36.316Z,11.30
2019-05-29T00:50:08.115Z,11.30
2019-05-29T00:52:40.100Z,11.20
2019-05-29T00:55:12.485Z,11.20
2019-05-29T00:57:44.271Z,11.10
2019-05-29T01:00:15.595Z,11.10
2019-05-29T01:02:50.404Z,11.00
2019-05-29T01:05:29.526Z,10.90
2019-05-29T01:08:00.925Z,11.00
2019-05-29T01:10:32.173Z,11.00
2019-05-29T01:13:05.111Z,11.00
2019-05-29T01:15:36.475Z,10.90
2019-05-29T01:18:07.911Z,10.80
2019-05-29T01:20:39.268Z,10.80
2019-05-29T01:23:10.745Z,10.80
2019-05-29T01:25:42.052Z,10.70
2019-05-29T01:28:13.435Z,10.70
2019-05-29T01:30:46.060Z,10.70
2019-05-29T01:33:19.991Z,10.60
2019-05-29T01:35:51.233Z,10.60
2019-05-29T01:38:23.480Z,10.60
2019-05-29T01:40:54.794Z,10.60
2019-05-29T01:43:26.169Z,10.50
2019-05-29T01:45:58.465Z,10.40
2019-05-29T01:48:30.239Z,10.40
2019-05-29T01:51:01.546Z,10.40
2019-05-29T01:53:33.001Z,10.30
2019-05-29T01:56:04.355Z,10.30
2019-05-29T01:58:35.893Z,10.30
2019-05-29T02:01:08.515Z,10.20
2019-05-29T02:03:40.096Z,10.30
2019-05-29T02:06:11.449Z,10.20
2019-05-29T02:08:42.834Z,10.20
2019-05-29T02:11:14.988Z,10.20
2019-05-29T02:13:46.520Z,10.20
2019-05-29T02:16:18.642Z,10.20
2019-05-29T02:18:50.824Z,10.10
2019-05-29T02:21:22.363Z,10.10
2019-05-29T02:23:54.357Z,10.20
2019-05-29T02:26:26.553Z,10.20
2019-05-29T02:28:58.709Z,10.20
2019-05-29T02:31:30.304Z,10.20
2019-05-29T02:34:01.706Z,10.20
2019-05-29T02:36:33.037Z,10.20
2019-05-29T02:39:06.535Z,10.30
2019-05-29T02:41:38.477Z,10.30
2019-05-29T02:44:10.554Z,10.20
2019-05-29T02:46:41.991Z,10.20
2019-05-29T02:49:14.480Z,10.20
2019-05-29T02:51:45.861Z,10.30
2019-05-29T02:54:20.191Z,10.30
2019-05-29T02:56:52.535Z,10.30
2019-05-29T02:59:25.647Z,10.30
2019-05-29T03:01:58.867Z,10.20
2019-05-29T03:04:32.850Z,10.40
2019-05-29T03:07:05.247Z,10.30
2019-05-29T03:09:36.532Z,10.30
2019-05-29T03:12:07.899Z,10.40
2019-05-29T03:14:39.235Z,10.30
2019-05-29T03:17:10.836Z,10.30
2019-05-29T03:19:42.255Z,10.30
2019-05-29T03:22:13.646Z,10.30
2019-05-29T03:24:45.117Z,10.40
2019-05-29T03:27:16.613Z,10.40
2019-05-29T03:29:47.991Z,10.40
2019-05-29T03:32:19.435Z,10.40
2019-05-29T03:34:51.042Z,10.40
2019-05-29T03:37:22.394Z,10.40
2019-05-29T03:39:53.983Z,10.40
2019-05-29T03:42:26.419Z,10.40
2019-05-29T03:44:57.876Z,10.40
2019-05-29T03:47:30.894Z,10.50
2019-05-29T03:50:02.626Z,10.50
2019-05-29T03:52:34.706Z,10.50
2019-05-29T03:55:06.411Z,10.60
2019-05-29T03:57:38.283Z,10.70
2019-05-29T04:00:11.378Z,10.70
2019-05-29T04:02:42.727Z,10.90
2019-05-29T04:05:15.565Z,11.10
2019-05-29T04:07:47.062Z,11.10
2019-05-29T04:10:29.338Z,11.30
2019-05-29T04:13:02.207Z,11.40
2019-05-29T04:15:36.539Z,11.60
2019-05-29T04:18:08.462Z,12.30
2019-05-29T04:20:41.806Z,12.50
2019-05-29T04:23:14.682Z,13.70
2019-05-29T04:25:47.376Z,12.80
2019-05-29T04:28:19.837Z,12.70
2019-05-29T04:30:51.252Z,15.00
2019-05-29T04:33:22.680Z,15.70
2019-05-29T04:35:54.799Z,16.60
2019-05-29T04:38:26.218Z,16.70
2019-05-29T04:40:57.515Z,17.40
2019-05-29T04:43:31.035Z,18.50
2019-05-29T04:46:02.658Z,18.20
2019-05-29T04:48:35.629Z,19.10
2019-05-29T04:51:06.971Z,20.50
2019-05-29T04:53:39.846Z,22.00
2019-05-29T04:56:11.420Z,21.50
2019-05-29T04:58:42.789Z,22.80
2019-05-29T05:01:14.342Z,24.20
2019-05-29T05:03:46.149Z,25.50
2019-05-29T05:06:17.541Z,26.50
2019-05-29T05:08:49.214Z,26.30
2019-05-29T05:11:20.585Z,27.50
2019-05-29T05:13:52.197Z,27.20
2019-05-29T05:16:23.598Z,25.70
2019-05-29T05:18:55.087Z,26.10
2019-05-29T05:21:26.560Z,25.40
2019-05-29T05:23:58.412Z,23.70
2019-05-29T05:26:30.057Z,23.60
2019-05-29T05:29:01.517Z,24.30
2019-05-29T05:31:32.787Z,25.30
2019-05-29T05:34:04.424Z,24.20
2019-05-29T05:36:36.774Z,25.10
2019-05-29T05:39:08.864Z,25.20
2019-05-29T05:41:41.113Z,25.00
2019-05-29T05:44:12.532Z,23.60
2019-05-29T05:46:43.912Z,22.20
2019-05-29T05:49:17.763Z,21.60
2019-05-29T05:51:49.325Z,22.10
2019-05-29T05:54:21.049Z,22.10
2019-05-29T05:56:54.917Z,23.50
2019-05-29T05:59:28.560Z,22.40
2019-05-29T06:02:00.040Z,23.00
2019-05-29T06:04:31.793Z,25.60
2019-05-29T06:07:03.874Z,26.20
2019-05-29T06:09:36.161Z,22.70
2019-05-29T06:12:07.901Z,21.70
2019-05-29T06:14:40.642Z,18.60
2019-05-29T06:17:15.076Z,20.80
2019-05-29T06:19:46.465Z,20.60
2019-05-29T06:22:18.014Z,20.40
2019-05-29T06:24:49.380Z,22.10
2019-05-29T06:27:21.183Z,21.40
2019-05-29T06:29:52.549Z,20.00
2019-05-29T06:32:24.171Z,19.10
2019-05-29T06:34:56.602Z,18.30
2019-05-29T06:37:27.993Z,17.60
2019-05-29T06:40:01.688Z,16.80
2019-05-29T06:42:33.559Z,16.20
2019-05-29T06:45:07.665Z,15.60
2019-05-29T06:47:40.870Z,16.30
2019-05-29T06:50:12.895Z,15.60
2019-05-29T06:52:47.742Z,15.00
2019-05-29T06:55:19.259Z,14.80
2019-05-29T06:57:50.757Z,14.70
2019-05-29T07:00:34.901Z,14.70
2019-05-29T07:02:55.355Z,15.20
2019-05-29T07:05:31.162Z,15.50
2019-05-29T07:08:18.359Z,15.50
2019-05-29T07:10:38.535Z,15.60
2019-05-29T07:13:10.279Z,15.60
2019-05-29T07:15:42.938Z,15.50
2019-05-29T07:18:14.914Z,15.10
2019-05-29T07:20:47.042Z,14.60
2019-05-29T07:23:18.824Z,14.80
2019-05-29T07:25:50.152Z,14.90
2019-05-29T07:28:21.562Z,15.10
2019-05-29T07:31:01.661Z,14.90
2019-05-29T07:33:27.134Z,14.90
2019-05-29T07:35:58.750Z,14.80
2019-05-29T07:38:30.274Z,14.70
2019-05-29T07:41:01.575Z,15.00
2019-05-29T07:43:33.103Z,15.30
2019-05-29T07:46:04.581Z,14.80
2019-05-29T07:48:36.375Z,14.70
2019-05-29T07:51:07.866Z,14.90
2019-05-29T07:53:40.165Z,14.80
2019-05-29T07:56:22.061Z,14.80
2019-05-29T07:58:56.431Z,14.90
2019-05-29T08:01:19.286Z,14.90
2019-05-29T08:03:50.758Z,14.90
2019-05-29T08:06:22.122Z,14.90
2019-05-29T08:08:54.504Z,14.80
2019-05-29T08:11:25.837Z,14.60
2019-05-29T08:13:57.165Z,14.30
2019-05-29T08:16:28.488Z,14.50
2019-05-29T08:19:00.025Z,14.40
2019-05-29T08:21:31.299Z,14.40
2019-05-29T08:24:02.724Z,14.30
2019-05-29T08:26:34.205Z,14.40
2019-05-29T08:29:05.465Z,14.50
2019-05-29T08:31:36.926Z,14.50
2019-05-29T08:34:08.254Z,14.50
2019-05-29T08:36:40.729Z,14.40
2019-05-29T08:39:12.596Z,14.50
2019-05-29T08:41:47.850Z,14.30
2019-05-29T08:44:17.154Z,14.30
2019-05-29T08:47:06.766Z,14.20
2019-05-29T08:49:21.629Z,14.40
2019-05-29T08:52:08.205Z,14.20
2019-05-29T08:54:25.924Z,14.40
2019-05-29T08:56:57.205Z,14.60
2019-05-29T08:59:28.453Z,14.80
2019-05-29T09:01:59.787Z,14.50
2019-05-29T09:04:31.421Z,14.30
2019-05-29T09:07:04.548Z,14.10
2019-05-29T09:09:39.945Z,14.10
2019-05-29T09:12:11.304Z,14.10
2019-05-29T09:14:43.343Z,14.20
2019-05-29T09:17:14.772Z,14.10
2019-05-29T09:19:47.678Z,14.30
2019-05-29T09:22:19.226Z,14.20
2019-05-29T09:24:50.910Z,14.20
2019-05-29T09:27:23.320Z,14.00
2019-05-29T09:29:54.969Z,14.10
2019-05-29T09:32:48.853Z,14.50
2019-05-29T09:35:00.294Z,14.60
2019-05-29T09:37:31.586Z,14.40
2019-05-29T09:40:02.958Z,14.50
2019-05-29T09:42:35.013Z,14.60
2019-05-29T09:45:06.592Z,14.80
2019-05-29T09:47:39.405Z,14.90
2019-05-29T09:50:11.686Z,14.90
2019-05-29T09:52:43.104Z,14.40
2019-05-29T09:55:14.603Z,14.50
2019-05-29T09:57:46.101Z,14.60
2019-05-29T10:00:18.245Z,14.90
2019-05-29T10:02:50.054Z,14.80
2019-05-29T10:05:21.698Z,14.80
2019-05-29T10:07:54.545Z,14.50
2019-05-29T10:10:26.741Z,14.70
2019-05-29T10:12:58.174Z,14.40
2019-05-29T10:15:29.455Z,14.70
2019-05-29T10:18:00.894Z,14.60
2019-05-29T10:20:33.499Z,14.70
2019-05-29T10:23:05.204Z,14.80
2019-05-29T10:25:37.604Z,14.70
2019-05-29T10:28:09.643Z,14.60
2019-05-29T10:30:42.287Z,14.60
2019-05-29T10:33:13.674Z,14.70
2019-05-29T10:35:46.655Z,14.70
2019-05-29T10:38:18.392Z,14.60
2019-05-29T10:41:04.608Z,15.00
2019-05-29T10:43:33.739Z,15.00
2019-05-29T10:45:55.925Z,15.10
2019-05-29T10:48:27.257Z,15.20
2019-05-29T10:50:58.617Z,14.90
2019-05-29T10:53:30.501Z,15.00
2019-05-29T10:56:01.815Z,15.10
2019-05-29T10:58:47.845Z,15.30
2019-05-29T11:01:06.206Z,15.00
2019-05-29T11:03:37.975Z,15.10
2019-05-29T11:06:09.375Z,15.20
2019-05-29T11:08:41.034Z,15.20
2019-05-29T11:11:12.547Z,15.10
2019-05-29T11:13:44.001Z,15.10
2019-05-29T11:16:15.621Z,15.10
2019-05-29T11:18:47.525Z,15.20
2019-05-29T11:21:19.947Z,15.30
2019-05-29T11:23:52.400Z,15.30
2019-05-29T11:26:23.727Z,15.30
2019-05-29T11:28:56.491Z,15.40
2019-05-29T11:31:29.258Z,15.20
2019-05-29T11:34:02.206Z,15.20
2019-05-29T11:36:35.152Z,15.10
2019-05-29T11:39:11.458Z,15.10
2019-05-29T11:41:46.807Z,15.00
2019-05-29T11:44:18.397Z,15.00
2019-05-29T11:46:52.151Z,15.30
2019-05-29T11:49:23.503Z,15.30
2019-05-29T11:52:17.276Z,15.10
2019-05-29T11:54:28.419Z,15.20
2019-05-29T11:56:59.808Z,15.20
2019-05-29T11:59:31.283Z,15.20
2019-05-29T12:02:03.533Z,15.10
2019-05-29T12:04:35.365Z,15.30
2019-05-29T12:07:06.696Z,15.30
2019-05-29T12:09:38.757Z,15.40
2019-05-29T12:12:10.287Z,15.20
2019-05-29T12:14:58.993Z,15.30
2019-05-29T12:17:14.757Z,15.30
2019-05-29T12:19:46.515Z,15.20
2019-05-29T12:22:17.946Z,15.20
2019-05-29T12:24:49.265Z,15.30
2019-05-29T12:27:22.204Z,15.20
2019-05-29T12:29:54.594Z,15.30
2019-05-29T12:32:26.065Z,15.30
2019-05-29T12:34:58.576Z,15.10
2019-05-29T12:37:30.602Z,15.30
2019-05-29T12:40:03.686Z,15.30
2019-05-29T12:42:35.464Z,15.50
2019-05-29T12:45:09.101Z,15.50
2019-05-29T12:47:41.099Z,15.30
2019-05-29T12:50:14.567Z,15.20
2019-05-29T12:52:46.290Z,15.40
2019-05-29T12:55:18.336Z,15.40
2019-05-29T12:57:50.836Z,15.50
2019-05-29T13:00:23.936Z,15.60
2019-05-29T13:02:56.262Z,15.20
2019-05-29T13:05:28.500Z,15.20
2019-05-29T13:08:00.940Z,15.20
2019-05-29T13:10:32.285Z,15.40
2019-05-29T13:13:10.454Z,15.30
2019-05-29T13:15:37.014Z,15.30
2019-05-29T13:18:10.158Z,15.50
2019-05-29T13:20:41.535Z,15.50
2019-05-29T13:23:14.545Z,15.20
2019-05-29T13:25:46.523Z,15.30
2019-05-29T13:28:18.245Z,15.30
2019-05-29T13:30:49.688Z,15.20
2019-05-29T13:33:21.330Z,15.30
2019-05-29T13:35:52.871Z,15.20
2019-05-29T13:38:25.917Z,15.30
2019-05-29T13:40:58.392Z,15.00
2019-05-29T13:43:29.789Z,15.20
2019-05-29T13:46:02.512Z,15.30
2019-05-29T13:48:34.049Z,15.20
2019-05-29T13:51:05.564Z,15.20
2019-05-29T13:53:37.059Z,15.00
2019-05-29T13:56:08.477Z,14.90
2019-05-29T13:58:40.402Z,14.90
2019-05-29T14:01:12.198Z,14.90
2019-05-29T14:03:43.572Z,14.80
2019-05-29T14:06:15.530Z,15.00
2019-05-29T14:08:47.175Z,15.20
2019-05-29T14:11:18.822Z,15.30
2019-05-29T14:13:50.433Z,15.40
2019-05-29T14:16:21.918Z,15.30
2019-05-29T14:18:54.496Z,15.30
2019-05-29T14:21:25.795Z,15.20
2019-05-29T14:23:57.090Z,15.20
2019-05-29T14:26:28.755Z,15.30
2019-05-29T14:29:01.363Z,15.30
2019-05-29T14:31:33.541Z,15.10
2019-05-29T14:34:05.181Z,15.10
2019-05-29T14:36:36.546Z,15.30
2019-05-29T14:39:09.766Z,15.30
2019-05-29T14:41:41.362Z,15.30
2019-05-29T14:44:12.942Z,15.10
2019-05-29T14:46:44.310Z,15.10
2019-05-29T14:49:15.741Z,15.00
2019-05-29T14:51:47.183Z,14.90
2019-05-29T14:54:18.823Z,15.10
2019-05-29T14:56:50.760Z,15.00
2019-05-29T14:59:24.026Z,15.10
2019-05-29T15:01:56.592Z,15.20
2019-05-29T15:04:27.901Z,15.10
2019-05-29T15:07:00.050Z,15.20
2019-05-29T15:09:31.339Z,15.20
2019-05-29T15:12:03.855Z,15.10
2019-05-29T15:14:36.382Z,15.10
2019-05-29T15:17:09.062Z,15.00
2019-05-29T15:19:40.515Z,14.90
2019-05-29T15:22:13.933Z,14.80
2019-05-29T15:24:59.697Z,14.80
2019-05-29T15:27:17.904Z,14.70
2019-05-29T15:29:49.375Z,14.80
2019-05-29T15:32:21.337Z,14.80
2019-05-29T15:34:52.866Z,14.80
2019-05-29T15:37:26.099Z,14.70
2019-05-29T15:39:57.540Z,14.80
2019-05-29T15:42:28.833Z,14.60
2019-05-29T15:45:01.542Z,14.70
2019-05-29T15:47:33.135Z,14.70
2019-05-29T15:50:07.209Z,14.70
2019-05-29T15:52:38.778Z,14.60
2019-05-29T15:55:24.611Z,14.60
2019-05-29T15:57:44.271Z,14.70
2019-05-29T16:00:18.359Z,14.60
2019-05-29T16:02:50.039Z,14.50
2019-05-29T16:05:23.113Z,14.50
2019-05-29T16:07:54.472Z,14.60
2019-05-29T16:10:25.911Z,14.70
2019-05-29T16:12:57.386Z,14.60
2019-05-29T16:15:29.419Z,14.50
2019-05-29T16:18:18.976Z,14.50
2019-05-29T16:20:45.410Z,14.50
2019-05-29T16:23:32.865Z,14.30
2019-05-29T16:25:50.329Z,14.30
2019-05-29T16:28:21.879Z,14.20
2019-05-29T16:30:53.332Z,14.30
2019-05-29T16:33:24.748Z,14.30
2019-05-29T16:35:56.981Z,14.30
2019-05-29T16:38:28.563Z,14.20
2019-05-29T16:41:02.706Z,14.20
2019-05-29T16:43:34.247Z,14.30
2019-05-29T16:46:05.573Z,14.10
2019-05-29T16:48:36.982Z,14.10
2019-05-29T16:51:08.289Z,14.20
2019-05-29T16:53:39.889Z,14.20
2019-05-29T16:56:11.244Z,14.20
2019-05-29T16:58:42.629Z,14.10
2019-05-29T17:01:15.317Z,14.10
2019-05-29T17:03:46.886Z,14.00
2019-05-29T17:06:18.444Z,13.70
2019-05-29T17:08:49.939Z,13.80
2019-05-29T17:11:23.394Z,13.90
2019-05-29T17:13:55.472Z,13.80
2019-05-29T17:16:26.968Z,13.70
2019-05-29T17:18:58.557Z,13.60
2019-05-29T17:21:29.920Z,13.60
2019-05-29T17:24:01.285Z,13.60
2019-05-29T17:26:32.645Z,13.40
2019-05-29T17:29:04.327Z,13.40
2019-05-29T17:31:41.594Z,13.40
2019-05-29T17:34:13.136Z,13.50
2019-05-29T17:36:46.508Z,13.50
2019-05-29T17:39:21.431Z,13.50
2019-05-29T17:41:52.864Z,13.30
2019-05-29T17:44:25.769Z,13.20
2019-05-29T17:46:58.803Z,13.30
2019-05-29T17:49:34.441Z,13.20
2019-05-29T17:52:03.486Z,13.10
2019-05-29T17:54:34.735Z,13.20
2019-05-29T17:57:06.111Z,13.20
2019-05-29T17:59:37.643Z,13.10
2019-05-29T18:02:08.978Z,12.90
2019-05-29T18:04:40.421Z,12.80
2019-05-29T18:07:11.812Z,12.70
2019-05-29T18:09:43.162Z,12.70
2019-05-29T18:12:17.001Z,12.70
2019-05-29T18:14:48.727Z,12.70
2019-05-29T18:17:21.380Z,12.60
2019-05-29T18:19:53.074Z,12.70
2019-05-29T18:22:25.615Z,12.60
2019-05-29T18:25:05.055Z,12.60
2019-05-29T18:27:40.413Z,12.60
2019-05-29T18:30:12.421Z,12.60
2019-05-29T18:32:43.816Z,12.40
2019-05-29T18:35:16.872Z,12.40
2019-05-29T18:37:51.337Z,12.40
2019-05-29T18:40:38.937Z,12.40
2019-05-29T18:43:25.241Z,12.40
2019-05-29T18:46:10.089Z,12.30
2019-05-29T18:48:42.217Z,12.30
2019-05-29T18:51:20.437Z,12.30
2019-05-29T18:53:52.398Z,12.20
2019-05-29T18:56:26.462Z,12.20
2019-05-29T18:59:11.653Z,12.10
2019-05-29T19:01:45.293Z,12.00
2019-05-29T19:04:31.939Z,12.00
2019-05-29T19:07:09.634Z,12.00
2019-05-29T19:09:49.683Z,11.90
2019-05-29T19:12:21.730Z,11.90
2019-05-29T19:15:06.510Z,11.80
2019-05-29T19:18:01.530Z,11.70
2019-05-29T19:21:07.818Z,11.70
2019-05-29T19:29:53.126Z,11.40
2019-05-29T19:32:34.367Z,11.40
2019-05-29T19:35:12.207Z,11.30
2019-05-29T19:37:43.684Z,11.20
2019-05-29T19:40:22.116Z,11.10
2019-05-29T19:42:49.981Z,11.10
2019-05-29T19:45:30.630Z,11.00
2019-05-29T19:48:13.064Z,11.00
2019-05-29T19:50:56.571Z,10.90
2019-05-29T19:53:33.608Z,11.00
2019-05-29T19:56:08.230Z,11.00
2019-05-29T19:58:39.765Z,10.90
2019-05-29T20:01:12.882Z,10.70
2019-05-29T20:03:47.649Z,10.50
2019-05-29T20:06:19.309Z,10.60
2019-05-29T20:08:54.873Z,10.50
2019-05-29T20:11:31.563Z,10.50
2019-05-29T20:14:07.414Z,10.40
2019-05-29T20:16:45.818Z,10.40
2019-05-29T20:19:20.885Z,10.40
2019-05-29T20:22:11.925Z,10.20
2019-05-29T20:24:46.838Z,10.20
2019-05-29T20:27:21.702Z,10.20
2019-05-29T20:29:54.953Z,10.00
2019-05-29T20:32:26.356Z,9.90
2019-05-29T20:35:02.472Z,9.90
2019-05-29T20:37:36.140Z,9.80
2019-05-29T20:40:29.591Z,9.70
2019-05-29T20:43:20.162Z,9.60
2019-05-29T20:45:59.201Z,9.60
2019-05-29T20:48:34.599Z,9.60
2019-05-29T20:51:17.519Z,9.60
2019-05-29T20:53:58.654Z,9.50
2019-05-29T20:56:35.901Z,9.50
2019-05-29T20:59:08.911Z,9.50
2019-05-29T21:01:45.238Z,9.50
2019-05-29T21:04:14.349Z,9.50
2019-05-29T21:06:45.868Z,9.50
2019-05-29T21:09:17.225Z,9.40
2019-05-29T21:11:48.523Z,9.40
2019-05-29T21:14:20.344Z,9.40
2019-05-29T21:16:52.328Z,9.50
2019-05-29T21:19:23.660Z,9.50
2019-05-29T21:21:55.014Z,9.50
2019-05-29T21:24:26.358Z,9.50
2019-05-29T21:26:58.517Z,9.40
2019-05-29T21:29:30.143Z,9.40
2019-05-29T21:32:02.378Z,9.40
2019-05-29T21:34:33.895Z,9.40
2019-05-29T21:37:06.919Z,9.30
2019-05-29T21:39:38.702Z,9.30
2019-05-29T21:42:10.410Z,9.30
2019-05-29T21:44:42.936Z,9.20
2019-05-29T21:47:15.169Z,9.10
2019-05-29T21:49:47.480Z,9.10
2019-05-29T21:52:19.296Z,9.10
2019-05-29T21:54:51.368Z,9.10
2019-05-29T21:57:22.807Z,9.10
2019-05-29T21:59:55.541Z,9.10
2019-05-29T22:02:27.041Z,9.10
2019-05-29T22:04:59.179Z,9.10
2019-05-29T22:07:30.604Z,9.00
2019-05-29T22:10:03.124Z,9.00
2019-05-29T22:12:36.299Z,9.10
2019-05-29T22:15:07.813Z,9.10
2019-05-29T22:17:41.906Z,9.10
2019-05-29T22:20:13.339Z,9.10
2019-05-29T22:22:44.651Z,9.10
2019-05-29T22:25:16.394Z,9.00
2019-05-29T22:27:49.182Z,9.00
2019-05-29T22:30:22.808Z,9.00
2019-05-29T22:32:55.938Z,8.90
2019-05-29T22:35:27.311Z,8.80
2019-05-29T22:38:00.062Z,8.70
2019-05-29T22:40:34.387Z,8.70
2019-05-29T22:43:05.951Z,8.70
2019-05-29T22:45:37.405Z,8.60
2019-05-29T22:48:08.956Z,8.70
2019-05-29T22:50:40.417Z,8.70
2019-05-29T22:53:11.771Z,8.60
2019-05-29T22:55:43.198Z,8.60
2019-05-29T22:58:14.830Z,8.60
2019-05-29T23:00:46.374Z,8.60
2019-05-29T23:03:17.910Z,8.40
2019-05-29T23:05:51.980Z,8.30
2019-05-29T23:08:23.423Z,8.30
2019-05-29T23:10:54.776Z,8.20
2019-05-29T23:13:26.103Z,8.30
2019-05-29T23:15:58.825Z,8.30
2019-05-29T23:18:30.180Z,8.20
2019-05-29T23:21:02.641Z,8.20
2019-05-29T23:23:34.541Z,8.30
2019-05-29T23:26:05.870Z,8.20
2019-05-29T23:28:37.255Z,8.30
2019-05-29T23:31:08.603Z,8.20
2019-05-29T23:33:40.058Z,8.20
2019-05-29T23:36:11.311Z,8.20
2019-05-29T23:38:42.764Z,8.10
2019-05-29T23:41:14.168Z,8.10
2019-05-29T23:43:45.602Z,8.10
2019-05-29T23:46:17.153Z,8.10
2019-05-29T23:48:48.602Z,8.00
2019-05-29T23:51:20.057Z,8.00
2019-05-29T23:53:53.531Z,8.00
2019-05-29T23:56:24.993Z,8.00
2019-05-29T23:58:57.775Z,7.90
